Hovedside
METAR-TAF:

METAR-TAF

Lufthavner :

Luleå, Sverige

Luleå lufthavn

breddegrad: 65-33N, lengdegrad: 022-08E, høyde over havet: 17 m

Gjeldene værobservasjon

Denne rapporten ble laget for 16 minutter siden, klokken 22:20 UTC
Vind 2 kt fra Nord
Temperatur 16°C
Luftfuktighet 77%
Trykk 1017 hPa
Sikt 10 km eller mer

METAR: ESPA 242220Z AUTO 36002KT 9999 FEW054/// BKN082/// 16/12 Q1017

Tid: 00:36 (22:36 UTC)

Varsel

Denne rapporten ble laget for 2 timer og 6 minutter siden, klokken 20:30 UTC
Varsel gyldig fra 24. klokken 21 UTC til 24. klokken 23 UTC
Vind 2 kt fra skiftende retning
Sikt 10 km eller mer
ingen skyer under 1500 m og ingen bygeskyer

TAF: ESPA 242030Z 2421/2423 VRB02KT CAVOK

Værobservasjoner og værvarsel for over 4000 flyplasser (METAR- og TAF-rapporter).

Tilgjengelige stasjoner er representert av de røde og gule prikkene på kartet.

Hold musepekeren over prikken for å se navnet på stasjonen.

Klikk så for å se værobservasjoner og -varsler.

For å forandre kartet kan du klikke på den grønne knappen med svart kryss for å zoome inn, på den grønne knappen med strek for å zoome ut, eller på de grønne pilene for å se tilstøtende kart.


METAR-TAF: